Time;durP1;ratioP1;P1;durP2;ratioP2;P2;SDS_P1;SDS_P2;PMS_P1;PMS_P2;Temp;Humidity;BMP_temperature;BMP_pressure;BME280_temperature;BME280_humidity;BME280_pressure;Samples;Min_cycle;Max_cycle;Signal;HPM_P1;HPM_P2
2022/09/26 00:01:39;;;;;;;10.87;4.17;;;-15.00;99.90;;;;;;5078829;28;20172;-71
2022/09/26 00:04:14;;;;;;;11.07;4.70;;;-15.50;99.90;;;;;;5078336;28;20174;-67
2022/09/26 00:06:41;;;;;;;7.17;4.17;;;-15.60;99.90;;;;;;5079626;28;20237;-76
2022/09/26 00:09:07;;;;;;;5.20;3.97;;;-16.80;99.90;;;;;;5081440;28;20183;-67
2022/09/26 00:11:33;;;;;;;4.87;4.20;;;-16.40;99.90;;;;;;5083966;28;20186;-65
2022/09/26 00:14:03;;;;;;;4.37;3.97;;;-16.50;99.90;;;;;;5076002;28;20175;-69
2022/09/26 00:16:29;;;;;;;3.60;3.30;;;-15.50;99.90;;;;;;5083080;28;20195;-68
2022/09/26 00:18:57;;;;;;;8.63;4.20;;;-18.20;99.90;;;;;;5079692;28;20187;-70
2022/09/26 00:21:24;;;;;;;4.60;3.40;;;-16.90;99.90;;;;;;5090209;28;20185;-75
2022/09/26 00:23:51;;;;;;;5.87;4.27;;;-15.20;99.90;;;;;;5082160;28;20241;-68
2022/09/26 00:26:19;;;;;;;6.57;4.60;;;-17.30;99.90;;;;;;5077272;28;20637;-69
2022/09/26 00:28:45;;;;;;;7.60;3.67;;;-18.40;99.90;;;;;;5078535;28;20163;-66
2022/09/26 00:31:17;;;;;;;7.67;4.40;;;-18.80;99.90;;;;;;5078474;28;20236;-66
2022/09/26 00:33:43;;;;;;;7.83;5.07;;;-13.90;99.90;;;;;;5084732;28;20175;-72
2022/09/26 00:36:09;;;;;;;9.00;4.70;;;-13.20;99.90;;;;;;5078227;28;20188;-74
2022/09/26 00:38:36;;;;;;;11.37;4.30;;;-13.70;99.90;;;;;;5083307;28;20171;-75
2022/09/26 00:41:03;;;;;;;6.97;4.40;;;-13.50;99.90;;;;;;5078029;28;20186;-67
2022/09/26 00:43:34;;;;;;;8.37;4.70;;;-14.60;99.90;;;;;;5078353;28;20179;-70
2022/09/26 00:46:25;;;;;;;6.03;4.50;;;-15.80;99.90;;;;;;5081234;28;20178;-68
2022/09/26 00:49:05;;;;;;;7.33;4.83;;;-15.90;99.90;;;;;;5081691;28;20240;-68
2022/09/26 00:51:33;;;;;;;5.00;4.53;;;-18.80;99.90;;;;;;5078252;28;20254;-66
2022/09/26 00:54:01;;;;;;;6.53;4.63;;;-17.50;99.90;;;;;;5083348;28;20332;-65
2022/09/26 00:56:32;;;;;;;4.67;4.10;;;-16.00;99.90;;;;;;5087522;28;20186;-70
2022/09/26 00:59:23;;;;;;;10.27;4.83;;;-16.40;99.90;;;;;;5083557;28;20202;-71
2022/09/26 01:01:55;;;;;;;5.00;4.57;;;-16.20;99.90;;;;;;5085282;28;20576;-66
2022/09/26 01:04:24;;;;;;;6.93;4.07;;;-17.30;99.90;;;;;;5077842;28;20190;-71
2022/09/26 01:06:51;;;;;;;8.10;3.73;;;-16.20;99.90;;;;;;5083167;28;20186;-67
2022/09/26 01:09:18;;;;;;;7.57;4.03;;;-18.30;99.90;;;;;;5077593;28;20187;-67
2022/09/26 01:11:44;;;;;;;8.13;4.17;;;-18.20;99.90;;;;;;5082024;28;20189;-67
2022/09/26 01:14:11;;;;;;;4.90;4.40;;;-18.50;99.90;;;;;;5083840;28;20194;-74
2022/09/26 01:16:38;;;;;;;6.23;4.27;;;-17.00;99.90;;;;;;5083803;28;20167;-71
2022/09/26 01:19:24;;;;;;;4.63;4.20;;;-16.80;99.90;;;;;;5082967;28;20268;-69
2022/09/26 01:21:59;;;;;;;11.00;4.43;;;-17.10;99.90;;;;;;5076036;28;20187;-76
2022/09/26 01:24:49;;;;;;;9.70;4.50;;;-17.80;99.90;;;;;;5076978;28;20199;-68
2022/09/26 01:27:42;;;;;;;11.70;5.13;;;-16.40;99.90;;;;;;5077538;28;20187;-76
2022/09/26 01:30:26;;;;;;;8.60;3.93;;;-15.70;99.90;;;;;;5077700;28;20278;-68
2022/09/26 01:32:56;;;;;;;5.93;3.57;;;-16.70;99.90;;;;;;5079029;28;20183;-69
2022/09/26 01:36:00;;;;;;;5.33;4.00;;;-17.30;99.90;;;;;;5085383;28;20229;-75
2022/09/26 01:38:35;;;;;;;5.63;4.13;;;-18.80;99.90;;;;;;5069903;28;20195;-65
2022/09/26 01:41:07;;;;;;;4.90;2.97;;;-16.40;99.90;;;;;;5084224;28;20609;-67
2022/09/26 01:44:00;;;;;;;4.50;4.10;;;-15.70;99.90;;;;;;5083349;28;20207;-69
2022/09/26 01:46:35;;;;;;;4.93;4.03;;;-16.20;99.90;;;;;;5077665;28;20172;-79
2022/09/26 01:49:26;;;;;;;14.27;4.50;;;-15.90;99.90;;;;;;5077126;28;20488;-73
2022/09/26 01:52:01;;;;;;;9.70;4.50;;;-15.40;99.90;;;;;;5081188;28;20171;-76
2022/09/26 01:54:35;;;;;;;6.67;3.77;;;-15.40;99.90;;;;;;5086848;28;20174;-74
2022/09/26 01:57:05;;;;;;;6.60;3.90;;;-16.40;99.90;;;;;;5082657;28;20249;-68
2022/09/26 01:59:45;;;;;;;5.87;3.83;;;-17.60;99.90;;;;;;5088789;28;20267;-74
2022/09/26 02:02:25;;;;;;;9.17;4.70;;;-15.30;99.90;;;;;;5075848;28;20236;-68
2022/09/26 02:04:57;;;;;;;4.33;3.67;;;-17.40;99.90;;;;;;5076575;28;20184;-67
2022/09/26 02:07:37;;;;;;;8.33;3.63;;;-18.00;99.90;;;;;;5080656;28;20229;-68
2022/09/26 02:10:15;;;;;;;10.40;5.60;;;-19.80;99.90;;;;;;5080080;28;20217;-67
2022/09/26 02:12:44;;;;;;;5.10;3.47;;;-20.10;99.90;;;;;;5080249;28;20171;-65
2022/09/26 02:15:17;;;;;;;11.07;4.03;;;-20.20;99.90;;;;;;5080986;28;20236;-67
2022/09/26 02:17:54;;;;;;;4.50;3.87;;;-18.10;99.90;;;;;;5077166;28;20176;-72
2022/09/26 02:20:43;;;;;;;10.77;3.83;;;-18.70;99.90;;;;;;5076393;28;20258;-74
2022/09/26 02:23:09;;;;;;;8.70;3.57;;;-19.10;99.90;;;;;;5075934;28;20573;-67
2022/09/26 02:25:36;;;;;;;9.03;3.63;;;-20.60;99.90;;;;;;5079860;28;20175;-67
2022/09/26 02:28:03;;;;;;;5.47;3.60;;;-20.90;99.90;;;;;;5080779;28;20171;-71
2022/09/26 02:30:29;;;;;;;5.60;3.43;;;-22.10;99.90;;;;;;5080372;28;20270;-76
2022/09/26 02:32:55;;;;;;;11.13;2.93;;;-19.50;99.90;;;;;;5076457;28;20262;-66
2022/09/26 02:38:06;;;;;;;8.03;3.40;;;-19.20;99.90;;;;;;5080690;28;20185;-77
2022/09/26 02:40:50;;;;;;;3.53;2.57;;;-21.40;99.90;;;;;;5083302;28;20293;-65
2022/09/26 02:43:37;;;;;;;6.10;3.07;;;-18.60;99.90;;;;;;5082687;28;20236;-74
2022/09/26 02:46:12;;;;;;;5.93;3.20;;;-22.60;99.90;;;;;;5084537;28;20609;-71
2022/09/26 02:48:56;;;;;;;9.73;3.27;;;-20.90;99.90;;;;;;5079110;28;20178;-78
2022/09/26 02:51:37;;;;;;;4.57;3.17;;;-16.20;99.90;;;;;;5075809;28;20179;-77
2022/09/26 02:54:25;;;;;;;7.10;3.60;;;-16.50;99.90;;;;;;5080229;28;20178;-75
2022/09/26 02:57:13;;;;;;;10.30;4.93;;;-17.70;99.90;;;;;;5072570;28;20199;-74
2022/09/26 03:00:00;;;;;;;7.33;5.23;;;-16.10;99.90;;;;;;5075147;28;20219;-67
2022/09/26 03:02:42;;;;;;;12.43;6.17;;;-20.00;99.90;;;;;;5080378;28;20179;-68
2022/09/26 03:05:14;;;;;;;14.70;7.00;;;-17.50;99.90;;;;;;5078720;28;20634;-72
2022/09/26 03:07:55;;;;;;;13.73;7.73;;;-15.90;99.90;;;;;;5074788;28;20167;-65
2022/09/26 03:10:23;;;;;;;11.90;7.33;;;-16.00;99.90;;;;;;5074685;28;20594;-69
2022/09/26 03:12:50;;;;;;;17.43;7.60;;;-14.60;99.90;;;;;;5074823;28;20191;-72
2022/09/26 03:15:17;;;;;;;11.10;7.77;;;-16.80;99.90;;;;;;5074551;28;20172;-75
2022/09/26 03:17:52;;;;;;;16.53;8.27;;;-19.60;99.90;;;;;;5074786;28;20175;-77
2022/09/26 03:20:20;;;;;;;11.40;6.33;;;-18.50;99.90;;;;;;5074199;28;20198;-73
2022/09/26 03:22:46;;;;;;;11.20;6.63;;;-17.40;99.90;;;;;;5082677;28;20213;-69
2022/09/26 03:25:24;;;;;;;11.37;7.07;;;-16.70;99.90;;;;;;5076583;28;20579;-71
2022/09/26 03:27:51;;;;;;;13.60;6.70;;;-16.90;99.90;;;;;;5083572;28;20239;-69
2022/09/26 03:30:20;;;;;;;11.57;5.87;;;-16.80;99.90;;;;;;5078790;28;20182;-76
2022/09/26 03:32:46;;;;;;;14.60;6.40;;;-13.60;99.90;;;;;;5074105;28;20191;-71
2022/09/26 03:35:13;;;;;;;15.37;6.33;;;-15.00;99.90;;;;;;5073530;28;20194;-76
2022/09/26 03:37:38;;;;;;;9.33;4.73;;;-14.40;99.90;;;;;;5080279;28;20190;-71
2022/09/26 03:40:09;;;;;;;10.27;5.10;;;-15.00;99.90;;;;;;5078096;28;20668;-77
2022/09/26 03:42:36;;;;;;;10.63;5.33;;;-15.20;99.90;;;;;;5080503;28;20481;-75
2022/09/26 03:45:06;;;;;;;9.90;4.27;;;-15.60;99.90;;;;;;5078344;28;20514;-73
2022/09/26 03:47:32;;;;;;;12.23;4.53;;;-14.80;99.90;;;;;;5083797;28;20197;-73
2022/09/26 03:49:58;;;;;;;10.07;4.40;;;-18.40;99.90;;;;;;5077695;28;20179;-70
2022/09/26 03:52:25;;;;;;;7.90;3.80;;;-19.20;99.90;;;;;;5074176;28;20195;-70
2022/09/26 03:54:52;;;;;;;8.47;4.33;;;-17.00;99.90;;;;;;5080891;28;20183;-72
2022/09/26 03:57:18;;;;;;;6.67;3.73;;;-20.40;99.90;;;;;;5073436;28;20262;-68
2022/09/26 03:59:44;;;;;;;10.27;3.73;;;-20.30;99.90;;;;;;5042184;28;1163060;-74
2022/09/26 04:02:11;;;;;;;6.03;3.50;;;-20.80;99.90;;;;;;5081035;28;20186;-68
2022/09/26 04:04:37;;;;;;;11.13;3.83;;;-16.40;99.90;;;;;;5079382;28;20234;-67
2022/09/26 04:07:03;;;;;;;12.07;4.63;;;-19.10;99.90;;;;;;5074095;28;20645;-71
2022/09/26 04:09:29;;;;;;;4.23;3.40;;;-19.00;99.90;;;;;;5080971;28;20503;-70
2022/09/26 04:11:55;;;;;;;7.70;3.80;;;-19.20;99.90;;;;;;5074965;28;20184;-76
2022/09/26 04:14:20;;;;;;;6.07;3.67;;;-19.80;99.90;;;;;;5078827;28;20191;-68
2022/09/26 04:16:47;;;;;;;4.83;2.70;;;-17.30;99.90;;;;;;5079659;28;20187;-74
2022/09/26 04:19:13;;;;;;;5.97;4.00;;;-16.60;99.90;;;;;;5074709;28;20617;-70
2022/09/26 04:21:40;;;;;;;6.50;3.43;;;-15.30;99.90;;;;;;5078314;28;20267;-69
2022/09/26 04:24:11;;;;;;;6.70;3.60;;;-16.10;99.90;;;;;;5080637;28;20470;-77
2022/09/26 04:26:42;;;;;;;16.10;5.03;;;-16.50;99.90;;;;;;5075615;28;20179;-72
2022/09/26 04:29:09;;;;;;;10.23;4.60;;;-16.30;99.90;;;;;;5082564;28;20206;-78
2022/09/26 04:31:35;;;;;;;5.17;3.70;;;-15.50;99.90;;;;;;5079217;28;20193;-69
2022/09/26 04:34:03;;;;;;;6.77;5.40;;;-13.30;99.90;;;;;;5085277;28;20191;-71
2022/09/26 04:36:30;;;;;;;6.40;4.40;;;-13.60;99.90;;;;;;5077300;28;20559;-69
2022/09/26 04:38:59;;;;;;;6.43;5.00;;;-15.30;99.90;;;;;;5079332;28;20578;-68
2022/09/26 04:41:26;;;;;;;10.70;5.47;;;-17.70;99.90;;;;;;5074781;28;20187;-68
2022/09/26 04:43:57;;;;;;;11.30;5.00;;;-17.00;99.90;;;;;;5081647;28;20183;-68
2022/09/26 04:46:26;;;;;;;11.37;5.03;;;-16.40;99.90;;;;;;5079307;28;20187;-69
2022/09/26 04:48:55;;;;;;;9.83;4.67;;;-16.60;99.90;;;;;;5077893;28;20175;-68
2022/09/26 04:51:22;;;;;;;6.40;5.07;;;-15.50;99.90;;;;;;5077130;28;20584;-73
2022/09/26 04:53:49;;;;;;;9.83;5.37;;;-14.10;99.90;;;;;;5081001;28;21321;-68
2022/09/26 04:56:16;;;;;;;9.57;4.90;;;-14.10;99.90;;;;;;5077876;28;20179;-72
2022/09/26 04:58:43;;;;;;;5.50;4.30;;;-15.10;99.90;;;;;;5074369;28;20183;-75
2022/09/26 05:01:14;;;;;;;9.10;4.50;;;-17.70;99.90;;;;;;5076788;28;20219;-74
2022/09/26 05:03:40;;;;;;;6.97;4.57;;;-15.70;99.90;;;;;;5077940;28;20207;-72
2022/09/26 05:06:08;;;;;;;10.23;4.07;;;-17.10;99.90;;;;;;5078328;28;20570;-67
2022/09/26 05:08:38;;;;;;;9.23;3.63;;;-13.00;99.90;;;;;;5078470;28;20207;-78
2022/09/26 05:11:04;;;;;;;6.67;3.83;;;-18.60;99.90;;;;;;5081262;28;20267;-75
2022/09/26 05:13:30;;;;;;;10.83;4.10;;;-18.50;99.90;;;;;;5085165;28;20198;-69
2022/09/26 05:15:59;;;;;;;6.67;4.23;;;-16.00;99.90;;;;;;5083682;28;20182;-70
2022/09/26 05:18:25;;;;;;;5.33;3.33;;;-13.10;99.90;;;;;;5087351;28;20648;-75
2022/09/26 05:20:52;;;;;;;5.23;3.00;;;-12.30;99.90;;;;;;5082051;28;20214;-71
2022/09/26 05:26:20;;;;;;;4.53;3.43;;;-15.40;99.90;;;;;;5077919;28;20532;-74
2022/09/26 05:28:55;;;;;;;5.40;2.97;;;-14.70;99.90;;;;;;5080283;28;20588;-70
2022/09/26 05:31:24;;;;;;;4.30;2.30;;;-12.60;99.90;;;;;;5086224;28;20528;-70
2022/09/26 05:33:50;;;;;;;2.67;2.47;;;-12.40;99.90;;;;;;5085939;28;20183;-68
2022/09/26 05:36:18;;;;;;;7.93;2.97;;;-16.00;99.90;;;;;;5081952;28;20226;-72
2022/09/26 05:38:44;;;;;;;3.97;2.07;;;-17.40;99.90;;;;;;5080372;28;20182;-74
2022/09/26 05:41:12;;;;;;;4.37;2.10;;;-14.60;99.90;;;;;;5077236;28;20312;-69
2022/09/26 05:43:38;;;;;;;4.93;3.27;;;-14.70;99.90;;;;;;5084152;28;20182;-70
2022/09/26 05:46:08;;;;;;;4.03;2.33;;;-14.30;99.90;;;;;;5079342;28;20180;-72
2022/09/26 05:48:36;;;;;;;5.33;2.00;;;-14.30;99.90;;;;;;5083828;28;20225;-72
2022/09/26 05:51:23;;;;;;;5.47;2.40;;;-14.40;99.90;;;;;;5077313;28;20186;-68
2022/09/26 05:53:49;;;;;;;4.67;2.43;;;-14.10;99.90;;;;;;5076690;28;20747;-71
2022/09/26 05:56:16;;;;;;;8.63;2.27;;;-12.60;99.90;;;;;;5077002;28;20187;-67
2022/09/26 05:58:42;;;;;;;5.23;2.83;;;-14.30;99.90;;;;;;5080009;28;20496;-66
2022/09/26 06:01:13;;;;;;;6.13;2.40;;;-17.50;99.90;;;;;;5076115;28;20264;-68
2022/09/26 06:03:44;;;;;;;4.60;2.47;;;-15.00;99.90;;;;;;5083504;28;20179;-67
2022/09/26 06:06:13;;;;;;;18.57;3.00;;;-16.30;99.90;;;;;;5083314;28;20266;-67
2022/09/26 06:08:39;;;;;;;7.47;3.10;;;-17.30;99.90;;;;;;5076462;28;20311;-75
2022/09/26 06:11:14;;;;;;;4.70;2.57;;;-15.40;99.90;;;;;;5075465;28;20217;-72
2022/09/26 06:13:44;;;;;;;5.47;2.83;;;-15.10;99.90;;;;;;5081046;28;20190;-77
2022/09/26 06:16:15;;;;;;;4.40;2.77;;;-13.70;99.90;;;;;;5081676;28;20191;-74
2022/09/26 06:18:41;;;;;;;4.17;2.80;;;-14.10;99.90;;;;;;5084593;28;20194;-74
2022/09/26 06:21:09;;;;;;;6.70;2.70;;;-14.80;99.90;;;;;;5084699;28;20203;-71
2022/09/26 06:23:35;;;;;;;10.53;3.20;;;-12.30;99.90;;;;;;5082248;28;20232;-74
2022/09/26 06:26:02;;;;;;;6.07;2.43;;;-13.40;99.90;;;;;;5081992;28;20803;-73
2022/09/26 06:28:29;;;;;;;4.93;3.53;;;-12.20;99.90;;;;;;5075699;28;20586;-77
2022/09/26 06:30:56;;;;;;;4.30;2.93;;;-14.60;99.90;;;;;;5081100;28;20195;-76
2022/09/26 06:33:22;;;;;;;6.90;3.10;;;-14.70;99.90;;;;;;5077993;28;20233;-71
2022/09/26 06:35:59;;;;;;;3.73;3.00;;;-14.90;99.90;;;;;;5080460;28;20195;-68
2022/09/26 06:38:25;;;;;;;3.43;2.10;;;-13.50;99.90;;;;;;5082150;28;20718;-81
2022/09/26 06:40:51;;;;;;;3.90;2.60;;;-14.30;99.90;;;;;;5082803;28;20219;-69
2022/09/26 06:43:18;;;;;;;7.83;2.73;;;-13.30;99.90;;;;;;5080949;28;20175;-78
2022/09/26 06:45:44;;;;;;;5.43;2.70;;;-14.00;99.90;;;;;;5076070;28;20258;-80
2022/09/26 06:48:10;;;;;;;4.93;2.83;;;-13.60;99.90;;;;;;5074833;28;20192;-74
2022/09/26 06:50:36;;;;;;;19.43;3.53;;;-16.70;99.90;;;;;;5082903;28;20363;-69
2022/09/26 06:53:05;;;;;;;5.27;3.63;;;-16.20;99.90;;;;;;5080296;28;20286;-67
2022/09/26 06:55:31;;;;;;;8.47;3.20;;;-14.90;99.90;;;;;;5078660;28;20218;-67
2022/09/26 06:57:57;;;;;;;3.93;3.40;;;-15.90;99.90;;;;;;5079170;28;20190;-67
2022/09/26 07:00:25;;;;;;;7.60;3.47;;;-12.80;99.90;;;;;;5076642;28;20218;-67
2022/09/26 07:02:52;;;;;;;4.53;2.80;;;-13.60;99.90;;;;;;5087573;28;20322;-70
2022/09/26 07:05:19;;;;;;;4.43;2.90;;;-14.00;99.90;;;;;;5091149;28;20475;-68
2022/09/26 07:07:47;;;;;;;5.23;2.70;;;-16.00;99.90;;;;;;5082276;28;20183;-69
2022/09/26 07:10:17;;;;;;;3.67;2.53;;;-14.70;99.90;;;;;;5075076;28;20191;-67
2022/09/26 07:12:46;;;;;;;7.67;2.97;;;-13.40;99.90;;;;;;5078728;28;20265;-73
2022/09/26 07:15:14;;;;;;;7.37;3.27;;;-14.10;99.90;;;;;;5085617;28;20187;-71
2022/09/26 07:17:41;;;;;;;4.17;3.10;;;-14.60;99.90;;;;;;5074624;28;20183;-69
2022/09/26 07:20:15;;;;;;;5.73;3.47;;;-13.20;99.90;;;;;;5074837;28;20234;-69
2022/09/26 07:22:45;;;;;;;4.10;2.43;;;-13.30;99.90;;;;;;5079385;28;20186;-67
2022/09/26 07:25:12;;;;;;;4.17;2.70;;;-16.60;99.90;;;;;;5074888;28;20617;-66
2022/09/26 07:27:39;;;;;;;5.63;2.50;;;-16.80;99.90;;;;;;5081649;28;20482;-68
2022/09/26 07:30:07;;;;;;;2.97;2.67;;;-17.00;99.90;;;;;;5082149;28;20474;-67
2022/09/26 07:32:35;;;;;;;6.37;3.23;;;-16.80;99.90;;;;;;5082353;28;20186;-68
2022/09/26 07:35:04;;;;;;;5.77;2.77;;;-20.20;99.90;;;;;;5075251;28;20232;-70
2022/09/26 07:37:31;;;;;;;12.40;3.23;;;-20.00;99.90;;;;;;5081650;28;20190;-67
2022/09/26 07:39:56;;;;;;;7.77;3.23;;;-16.40;99.90;;;;;;5075516;28;20661;-68
2022/09/26 07:42:23;;;;;;;2.83;2.63;;;-16.90;99.90;;;;;;5072410;28;20237;-71
2022/09/26 07:44:48;;;;;;;3.27;2.10;;;-15.60;99.90;;;;;;5076054;28;20194;-69
2022/09/26 07:50:12;;;;;;;3.83;2.63;;;-15.70;99.90;;;;;;5076199;28;20201;-65
2022/09/26 07:52:48;;;;;;;10.17;2.27;;;-18.50;99.90;;;;;;5079473;28;20210;-68
2022/09/26 07:55:18;;;;;;;2.77;2.20;;;-20.20;99.90;;;;;;5074494;28;20193;-72
2022/09/26 07:57:45;;;;;;;4.47;2.33;;;-19.00;99.90;;;;;;5074680;28;20219;-67
2022/09/26 08:00:16;;;;;;;4.47;2.50;;;-17.90;99.90;;;;;;5078129;28;20199;-67
2022/09/26 08:02:45;;;;;;;4.80;2.87;;;-18.40;99.90;;;;;;5074579;28;20263;-67
2022/09/26 08:05:18;;;;;;;3.60;2.57;;;-18.70;99.90;;;;;;5074658;28;20576;-67
2022/09/26 08:07:45;;;;;;;4.97;2.47;;;-21.10;99.90;;;;;;5075000;28;20622;-68
2022/09/26 08:10:20;;;;;;;3.17;2.20;;;-18.40;99.90;;;;;;5082318;28;20214;-70
2022/09/26 08:12:46;;;;;;;7.47;2.73;;;-15.60;99.90;;;;;;5082821;28;20186;-66
2022/09/26 08:15:13;;;;;;;1.53;1.43;;;-15.50;99.90;;;;;;5081235;28;20190;-68
2022/09/26 08:17:39;;;;;;;3.13;2.33;;;-13.80;99.90;;;;;;5076339;28;20227;-66
2022/09/26 08:20:06;;;;;;;3.57;2.40;;;-19.20;99.90;;;;;;5074385;28;20228;-70
2022/09/26 08:22:32;;;;;;;6.77;2.70;;;-19.50;99.90;;;;;;5078673;28;20605;-68
2022/09/26 08:24:59;;;;;;;3.90;2.37;;;-18.40;99.90;;;;;;5079468;28;20182;-70
2022/09/26 08:27:25;;;;;;;5.63;2.63;;;-21.20;99.90;;;;;;5078602;28;20221;-73
2022/09/26 08:29:51;;;;;;;8.00;2.37;;;-16.10;99.90;;;;;;5078029;28;20182;-70
2022/09/26 08:32:18;;;;;;;7.50;2.93;;;-19.20;99.90;;;;;;5080371;28;20529;-72
2022/09/26 08:34:45;;;;;;;3.67;2.50;;;-17.00;99.90;;;;;;5075126;28;20571;-73
2022/09/26 08:37:12;;;;;;;9.23;2.23;;;-15.10;99.90;;;;;;5077431;28;20312;-68
2022/09/26 08:39:38;;;;;;;3.40;2.40;;;-20.90;99.90;;;;;;5082871;28;20248;-68
2022/09/26 08:42:12;;;;;;;13.20;2.30;;;-18.40;99.90;;;;;;5082995;28;20477;-69
2022/09/26 08:44:46;;;;;;;6.67;2.40;;;-13.40;99.90;;;;;;5078137;28;20176;-67
2022/09/26 08:47:42;;;;;;;2.83;1.77;;;-12.60;99.90;;;;;;5083362;28;20641;-68
2022/09/26 08:50:21;;;;;;;5.40;2.07;;;-15.60;99.90;;;;;;5077565;28;20263;-67
2022/09/26 08:52:59;;;;;;;5.53;2.77;;;-15.40;99.90;;;;;;5083610;28;20282;-76
2022/09/26 08:55:30;;;;;;;2.83;2.40;;;-11.20;99.90;;;;;;5086536;28;20178;-68
2022/09/26 08:58:03;;;;;;;3.70;2.20;;;-11.90;99.90;;;;;;5082301;28;20190;-69
2022/09/26 09:00:32;;;;;;;7.80;1.87;;;-11.90;99.90;;;;;;5084142;28;20206;-67
2022/09/26 09:03:09;;;;;;;6.63;1.93;;;-12.50;99.90;;;;;;5077882;28;20217;-71
2022/09/26 09:05:39;;;;;;;7.60;2.10;;;-12.00;99.90;;;;;;5083741;28;20577;-80
2022/09/26 09:08:20;;;;;;;4.30;1.63;;;-13.10;99.90;;;;;;5077584;28;20214;-70
2022/09/26 09:11:04;;;;;;;3.77;1.77;;;-12.80;99.90;;;;;;5083393;28;20501;-75
2022/09/26 09:13:56;;;;;;;2.17;1.80;;;-12.90;99.90;;;;;;5083076;28;20186;-68
2022/09/26 09:16:50;;;;;;;5.73;2.17;;;-16.40;99.90;;;;;;5084344;28;20186;-71
2022/09/26 09:19:29;;;;;;;6.67;1.73;;;-13.50;99.90;;;;;;5076616;28;20767;-70
2022/09/26 09:22:25;;;;;;;5.93;2.60;;;-16.20;99.90;;;;;;5076020;28;20485;-70
2022/09/26 09:25:03;;;;;;;4.93;3.23;;;-13.40;99.90;;;;;;5077446;28;20175;-71
2022/09/26 09:27:46;;;;;;;3.60;1.93;;;-16.30;99.90;;;;;;5076330;28;20738;-69
2022/09/26 09:30:31;;;;;;;3.67;2.73;;;-15.10;99.90;;;;;;5078943;28;20183;-69
2022/09/26 09:33:11;;;;;;;4.57;3.17;;;-13.80;99.90;;;;;;5087036;28;20274;-70
2022/09/26 09:35:42;;;;;;;7.83;2.80;;;-14.00;99.90;;;;;;5084549;28;20183;-69
2022/09/26 09:38:18;;;;;;;5.17;3.23;;;-19.50;99.90;;;;;;5081694;28;20268;-69
2022/09/26 09:40:59;;;;;;;8.80;2.60;;;-18.10;99.90;;;;;;5082700;28;20194;-70
2022/09/26 09:43:42;;;;;;;9.10;2.43;;;-17.60;99.90;;;;;;5079625;28;20214;-70
2022/09/26 09:46:27;;;;;;;5.13;3.27;;;-15.10;99.90;;;;;;5079902;28;20231;-71
2022/09/26 09:49:08;;;;;;;4.37;3.30;;;-16.00;99.90;;;;;;5077832;28;20179;-70
2022/09/26 09:51:50;;;;;;;5.07;3.10;;;-17.20;99.90;;;;;;5079660;28;20183;-74
2022/09/26 09:54:34;;;;;;;9.47;2.57;;;-16.60;99.90;;;;;;5082558;28;20244;-68
2022/09/26 09:57:24;;;;;;;4.77;2.80;;;-14.30;99.90;;;;;;5084671;28;20176;-72
2022/09/26 09:59:59;;;;;;;4.97;2.50;;;-13.60;99.90;;;;;;5083999;28;20203;-70
2022/09/26 10:02:38;;;;;;;5.77;2.90;;;-15.80;99.90;;;;;;5080264;28;20239;-69
2022/09/26 10:05:16;;;;;;;5.63;2.87;;;-13.50;99.90;;;;;;5077894;28;20175;-68
2022/09/26 10:07:43;;;;;;;5.03;2.47;;;-14.30;99.90;;;;;;5080826;28;20175;-69
2022/09/26 10:10:19;;;;;;;9.20;3.33;;;-15.60;99.90;;;;;;5075599;28;20481;-70
2022/09/26 10:12:46;;;;;;;6.50;3.27;;;-15.10;99.90;;;;;;5076670;28;20231;-69
2022/09/26 10:15:26;;;;;;;3.63;2.47;;;-17.30;99.90;;;;;;5079408;28;20270;-76
2022/09/26 10:18:06;;;;;;;5.47;2.27;;;-15.50;99.90;;;;;;5080465;28;20190;-68
2022/09/26 10:20:56;;;;;;;6.17;2.83;;;-14.70;99.90;;;;;;5076389;28;20194;-73
2022/09/26 10:23:45;;;;;;;7.43;2.80;;;-15.10;99.90;;;;;;5076266;28;20658;-74
2022/09/26 10:26:12;;;;;;;7.63;3.63;;;-14.90;99.90;;;;;;5077658;28;20228;-67
2022/09/26 10:28:47;;;;;;;6.27;2.50;;;-15.80;99.90;;;;;;5079818;28;20183;-69
2022/09/26 10:31:25;;;;;;;3.87;2.23;;;-15.30;99.90;;;;;;5079348;28;20179;-69
2022/09/26 10:34:04;;;;;;;6.30;2.37;;;-17.40;99.90;;;;;;5078592;28;20269;-70
2022/09/26 10:36:35;;;;;;;7.23;2.43;;;-15.30;99.90;;;;;;5081366;28;20202;-71
2022/09/26 10:42:01;;;;;;;6.73;3.40;;;-15.50;99.90;;;;;;5083294;28;20523;-69
2022/09/26 10:44:32;;;;;;;3.30;2.67;;;-14.20;99.90;;;;;;5076145;28;20202;-68
2022/09/26 10:47:07;;;;;;;6.07;2.80;;;-14.50;99.90;;;;;;5075312;28;20489;-66
2022/09/26 10:50:00;;;;;;;6.63;2.90;;;-13.90;99.90;;;;;;5075900;28;20254;-67
2022/09/26 10:52:37;;;;;;;7.43;3.07;;;-15.50;99.90;;;;;;5076118;28;20196;-71
2022/09/26 10:55:12;;;;;;;2.93;2.73;;;-16.00;99.90;;;;;;5073804;28;20183;-69
2022/09/26 10:57:54;;;;;;;6.93;2.83;;;-15.70;99.90;;;;;;5074187;28;20412;-69
2022/09/26 11:00:39;;;;;;;11.63;3.63;;;-15.40;99.90;;;;;;5078519;28;20207;-71
2022/09/26 11:03:17;;;;;;;4.50;4.00;;;-13.50;99.90;;;;;;5080718;28;20679;-67
2022/09/26 11:05:57;;;;;;;7.17;3.40;;;-15.30;99.90;;;;;;5074050;28;20186;-72
2022/09/26 11:08:34;;;;;;;4.03;2.43;;;-18.50;99.90;;;;;;5082666;28;20186;-68
2022/09/26 11:11:05;;;;;;;3.57;2.90;;;-14.90;99.90;;;;;;5075183;28;20204;-71
2022/09/26 11:14:05;;;;;;;7.73;2.50;;;-16.40;99.90;;;;;;5078746;28;20183;-72
2022/09/26 11:16:53;;;;;;;8.57;3.43;;;-16.30;99.90;;;;;;5068982;28;20187;-72
2022/09/26 11:19:41;;;;;;;9.57;3.10;;;-16.20;99.90;;;;;;5082709;28;20180;-75
2022/09/26 11:22:13;;;;;;;10.93;3.80;;;-16.10;99.90;;;;;;5075329;28;20262;-69
2022/09/26 11:24:50;;;;;;;2.93;2.60;;;-15.30;99.90;;;;;;5074916;28;20222;-68
2022/09/26 11:27:30;;;;;;;4.80;2.47;;;-14.40;99.90;;;;;;5075307;28;20174;-75
2022/09/26 11:30:27;;;;;;;10.30;3.37;;;-15.70;99.90;;;;;;5077116;28;20497;-71
2022/09/26 11:32:55;;;;;;;3.10;2.90;;;-14.80;99.90;;;;;;5068416;28;20194;-69
2022/09/26 11:35:42;;;;;;;2.33;2.13;;;-13.80;99.90;;;;;;5078893;28;20190;-68
2022/09/26 11:38:37;;;;;;;4.90;3.17;;;-13.90;99.90;;;;;;5078950;28;20179;-70
2022/09/26 11:41:58;;;;;;;6.50;2.97;;;-13.70;99.90;;;;;;5079006;28;20214;-69
2022/09/26 11:44:41;;;;;;;4.03;2.60;;;-14.10;99.90;;;;;;5055674;28;20270;-69
2022/09/26 11:47:28;;;;;;;3.47;2.70;;;-13.70;99.90;;;;;;5052773;28;20183;-71
2022/09/26 11:50:22;;;;;;;3.57;3.23;;;-16.30;99.90;;;;;;5076553;28;20222;-67
2022/09/26 11:53:09;;;;;;;3.10;1.87;;;-15.80;99.90;;;;;;5075006;28;20495;-68
2022/09/26 11:55:49;;;;;;;4.07;2.47;;;-15.60;99.90;;;;;;5080295;28;20613;-69
2022/09/26 11:58:42;;;;;;;5.30;2.30;;;-15.50;99.90;;;;;;5079658;28;20189;-71
2022/09/26 12:01:15;;;;;;;3.50;3.13;;;-15.50;99.90;;;;;;5086277;28;20680;-68
2022/09/26 12:04:15;;;;;;;2.40;2.20;;;-15.40;99.90;;;;;;5077440;28;20486;-76
2022/09/26 12:07:04;;;;;;;9.33;3.70;;;-17.20;99.90;;;;;;5082069;28;20171;-68
2022/09/26 12:09:43;;;;;;;1.90;1.80;;;-14.00;99.90;;;;;;5075075;28;20183;-69
2022/09/26 12:12:27;;;;;;;2.13;1.93;;;-14.50;99.90;;;;;;5078022;28;20197;-70
2022/09/26 12:15:27;;;;;;;5.10;2.17;;;-16.60;99.90;;;;;;5078978;28;20262;-71
2022/09/26 12:18:16;;;;;;;7.00;2.60;;;-17.20;99.90;;;;;;5078340;28;20283;-68
2022/09/26 12:20:50;;;;;;;7.23;2.40;;;-17.40;99.90;;;;;;5078741;28;20270;-72
2022/09/26 12:23:24;;;;;;;2.30;1.70;;;-17.80;99.90;;;;;;5078660;28;20231;-69
2022/09/26 12:26:04;;;;;;;2.10;1.50;;;-17.50;99.90;;;;;;5088243;28;20178;-68
2022/09/26 12:28:39;;;;;;;2.33;2.13;;;-15.20;99.90;;;;;;5081761;28;20320;-71
2022/09/26 12:31:19;;;;;;;3.50;1.83;;;-16.80;99.90;;;;;;5087366;28;20182;-70
2022/09/26 12:34:11;;;;;;;5.63;2.00;;;-19.40;99.90;;;;;;5097305;28;20212;-70
2022/09/26 12:36:53;;;;;;;14.20;2.73;;;-18.00;99.90;;;;;;5079099;28;20189;-69
2022/09/26 12:39:28;;;;;;;2.47;1.43;;;-18.30;99.90;;;;;;5078551;28;20189;-70
2022/09/26 12:42:29;;;;;;;6.67;2.37;;;-18.20;99.90;;;;;;5081620;28;20589;-68
2022/09/26 12:45:23;;;;;;;3.80;2.07;;;-18.40;99.90;;;;;;5082614;28;20185;-70
2022/09/26 12:48:06;;;;;;;1.40;1.30;;;-15.90;99.90;;;;;;5082227;28;20199;-70
2022/09/26 12:50:41;;;;;;;1.37;1.27;;;-15.30;99.90;;;;;;5082647;28;20677;-70
2022/09/26 12:53:53;;;;;;;1.40;1.27;;;-15.70;99.90;;;;;;5077847;28;20289;-72
2022/09/26 12:56:46;;;;;;;3.63;1.33;;;-14.50;99.90;;;;;;5080227;28;20184;-73
2022/09/26 12:59:21;;;;;;;3.33;1.33;;;-13.90;99.90;;;;;;5078478;28;20553;-71
2022/09/26 13:02:22;;;;;;;2.53;1.30;;;-16.00;99.90;;;;;;5086751;28;20182;-68
2022/09/26 13:04:54;;;;;;;2.03;1.60;;;-15.30;99.90;;;;;;5083719;28;20578;-71
2022/09/26 13:07:23;;;;;;;1.00;1.00;;;-14.10;99.90;;;;;;5077671;28;20178;-67
2022/09/26 13:10:12;;;;;;;3.80;1.73;;;-14.10;99.90;;;;;;5077883;28;20648;-68
2022/09/26 13:12:50;;;;;;;4.57;1.40;;;-14.70;99.90;;;;;;5084910;28;20647;-74
2022/09/26 13:15:34;;;;;;;1.43;1.30;;;-15.10;99.90;;;;;;5076219;28;20179;-68
2022/09/26 13:18:17;;;;;;;2.87;2.13;;;-14.40;99.90;;;;;;5081166;28;20266;-67
2022/09/26 13:20:52;;;;;;;1.40;1.30;;;-14.90;99.90;;;;;;5076613;28;20611;-71
2022/09/26 13:23:26;;;;;;;5.00;2.40;;;-14.50;99.90;;;;;;5077248;28;20171;-70